Time;durP1;ratioP1;P1;durP2;ratioP2;P2;SDS_P1;SDS_P2;PMS_P1;PMS_P2;Temp;Humidity;BMP_temperature;BMP_pressure;BME280_temperature;BME280_humidity;BME280_pressure;Samples;Min_cycle;Max_cycle;Signal;HPM_P1;HPM_P2
2022/02/24 00:01:28;;;;;;;8.63;2.45;;;;;;;-1.36;82.35;99826.53;5012962;28;20049;-66
2022/02/24 00:03:53;;;;;;;8.45;1.95;;;;;;;-1.30;82.70;99845.69;5012476;28;20102;-64
2022/02/24 00:06:22;;;;;;;7.93;2.50;;;;;;;-1.25;82.61;99848.97;4995788;28;20069;-66
2022/02/24 00:08:48;;;;;;;7.32;2.47;;;;;;;-1.24;82.40;99853.34;5029081;28;20041;-64
2022/02/24 00:11:13;;;;;;;10.43;2.20;;;;;;;-1.17;82.10;99855.69;5012215;28;20504;-64
2022/02/24 00:13:39;;;;;;;9.23;2.25;;;;;;;-1.17;82.34;99850.38;5012270;28;20048;-64
2022/02/24 00:16:06;;;;;;;8.05;2.40;;;;;;;-1.25;81.93;99845.44;5011709;28;20049;-65
2022/02/24 00:18:32;;;;;;;8.25;2.28;;;;;;;-1.23;82.64;99857.72;5012541;28;20179;-65
2022/02/24 00:20:58;;;;;;;7.97;2.50;;;;;;;-1.24;83.47;99856.00;5012061;28;20097;-66
2022/02/24 00:23:24;;;;;;;7.70;2.30;;;;;;;-1.20;82.76;99853.22;4995599;28;20038;-64
2022/02/24 00:25:50;;;;;;;7.93;2.40;;;;;;;-1.29;82.97;99846.53;5011870;28;20053;-66
2022/02/24 00:28:16;;;;;;;9.00;2.42;;;;;;;-1.27;83.05;99858.78;5011904;28;20041;-66
2022/02/24 00:30:42;;;;;;;7.85;2.75;;;;;;;-1.20;82.82;99862.03;5045214;28;20389;-65
2022/02/24 00:33:09;;;;;;;7.78;2.20;;;;;;;-1.18;82.22;99865.44;5028547;28;20052;-64
2022/02/24 00:35:35;;;;;;;8.05;2.38;;;;;;;-1.23;82.85;99868.31;5028030;28;20049;-65
2022/02/24 00:38:00;;;;;;;8.05;2.15;;;;;;;-1.31;81.91;99859.88;5011675;28;20041;-64
2022/02/24 00:40:26;;;;;;;8.05;2.53;;;;;;;-1.27;82.63;99871.19;5011497;28;20100;-66
2022/02/24 00:42:52;;;;;;;6.50;1.83;;;;;;;-1.39;82.17;99851.41;5029524;28;20064;-64
2022/02/24 00:45:18;;;;;;;7.30;2.38;;;;;;;-1.30;82.24;99866.88;5011814;28;20103;-65
2022/02/24 00:47:44;;;;;;;8.50;2.30;;;;;;;-1.25;82.53;99878.13;5011991;28;20045;-65
2022/02/24 00:50:13;;;;;;;7.95;2.15;;;;;;;-1.35;82.19;99858.28;4995479;28;20048;-64
2022/02/24 00:52:41;;;;;;;7.05;2.03;;;;;;;-1.27;82.11;99876.50;5011798;28;20505;-65
2022/02/24 00:55:07;;;;;;;7.03;2.17;;;;;;;-1.30;81.98;99880.16;4995426;28;20044;-64
2022/02/24 00:57:33;;;;;;;6.28;2.00;;;;;;;-1.31;81.77;99875.78;5027668;28;20122;-65
2022/02/24 00:59:59;;;;;;;7.10;1.92;;;;;;;-1.31;81.61;99881.09;5011158;28;20481;-65
2022/02/24 01:02:25;;;;;;;7.25;2.03;;;;;;;-1.38;81.19;99866.38;5012800;28;20124;-66
2022/02/24 01:04:51;;;;;;;6.00;1.77;;;;;;;-1.35;79.12;99863.59;4998713;28;20045;-65
2022/02/24 01:07:16;;;;;;;8.35;1.77;;;;;;;-1.27;79.71;99877.34;5014921;28;20473;-66
2022/02/24 01:09:42;;;;;;;6.03;1.73;;;;;;;-1.34;77.66;99875.06;5015096;28;20073;-65
2022/02/24 01:12:08;;;;;;;5.93;1.48;;;;;;;-1.30;77.15;99882.81;5031626;28;20045;-65
2022/02/24 01:14:34;;;;;;;5.00;1.45;;;;;;;-1.29;77.01;99887.16;4998887;28;20049;-69
2022/02/24 01:17:00;;;;;;;5.68;1.40;;;;;;;-1.34;77.54;99881.22;5031307;28;20063;-64
2022/02/24 01:19:26;;;;;;;5.47;1.50;;;;;;;-1.24;77.66;99893.13;4982312;28;20490;-64
2022/02/24 01:21:51;;;;;;;6.20;1.73;;;;;;;-1.24;77.20;99887.84;5014704;28;20394;-65
2022/02/24 01:24:17;;;;;;;7.53;2.13;;;;;;;-1.28;77.72;99899.50;5031135;28;20073;-65
2022/02/24 01:26:43;;;;;;;7.15;1.75;;;;;;;-1.33;78.11;99888.25;5016028;28;20070;-67
2022/02/24 01:29:09;;;;;;;7.05;1.83;;;;;;;-1.32;78.61;99900.56;5016112;28;20495;-66
2022/02/24 01:31:35;;;;;;;6.03;1.88;;;;;;;-1.29;79.45;99905.72;5016628;28;20108;-66
2022/02/24 01:34:01;;;;;;;6.50;1.70;;;;;;;-1.26;79.04;99899.44;5016478;28;20041;-65
2022/02/24 01:36:28;;;;;;;6.85;1.83;;;;;;;-1.23;78.46;99910.75;5016508;28;20052;-69
2022/02/24 01:38:54;;;;;;;7.97;2.58;;;;;;;-1.23;79.46;99910.75;5000789;28;20056;-67
2022/02/24 01:41:20;;;;;;;7.28;2.33;;;;;;;-1.17;78.79;99908.75;5033126;28;20053;-66
2022/02/24 01:43:47;;;;;;;7.57;2.42;;;;;;;-1.23;78.40;99912.56;5032343;28;20057;-64
2022/02/24 01:46:16;;;;;;;8.23;2.00;;;;;;;-1.36;78.92;99888.38;4999352;28;20054;-67
2022/02/24 01:48:43;;;;;;;7.28;2.53;;;;;;;-1.17;78.24;99908.75;5032442;28;20083;-65
2022/02/24 01:51:10;;;;;;;8.40;2.53;;;;;;;-1.13;78.91;99911.22;4999441;28;20057;-67
2022/02/24 01:53:36;;;;;;;8.23;2.55;;;;;;;-1.20;78.25;99908.91;5031544;28;20115;-65
2022/02/24 01:56:03;;;;;;;8.30;3.00;;;;;;;-1.19;77.96;99915.94;4999067;28;20099;-69
2022/02/24 01:58:29;;;;;;;8.18;2.83;;;;;;;-1.19;77.64;99921.22;5014980;28;20045;-66
2022/02/24 02:00:55;;;;;;;10.98;2.85;;;;;;;-1.18;77.19;99934.41;5014768;28;20136;-65
2022/02/24 02:03:21;;;;;;;8.63;2.47;;;;;;;-1.16;77.14;99929.91;5015153;28;20060;-65
2022/02/24 02:05:48;;;;;;;8.63;2.47;;;;;;;-1.15;77.36;99922.81;4998797;28;20141;-65
2022/02/24 02:08:14;;;;;;;8.85;2.03;;;;;;;-1.22;75.89;99922.22;5014660;28;20131;-65
2022/02/24 02:10:39;;;;;;;7.47;2.47;;;;;;;-1.35;76.91;99900.72;5014044;28;20183;-64
2022/02/24 02:13:06;;;;;;;6.32;2.00;;;;;;;-1.21;75.34;99926.59;5013944;28;20119;-64
2022/02/24 02:15:33;;;;;;;7.03;1.77;;;;;;;-1.24;73.73;99919.66;4996680;28;20045;-65
2022/02/24 02:17:58;;;;;;;5.68;1.40;;;;;;;-1.23;72.77;99926.66;5030204;28;20059;-65
2022/02/24 02:20:25;;;;;;;6.03;1.55;;;;;;;-1.43;72.96;99901.97;5013767;28;20049;-65
2022/02/24 02:22:52;;;;;;;5.55;1.35;;;;;;;-1.19;72.13;99937.16;4997210;28;20072;-65
2022/02/24 02:25:20;;;;;;;5.47;1.63;;;;;;;-1.25;73.05;99933.81;4996964;28;20137;-64
2022/02/24 02:27:51;;;;;;;6.53;1.90;;;;;;;-1.17;73.20;99941.47;5030018;28;20424;-65
2022/02/24 02:30:18;;;;;;;17.00;2.28;;;;;;;-1.13;73.19;99936.84;5029974;28;20049;-65
2022/02/24 02:32:44;;;;;;;6.68;2.22;;;;;;;-1.16;73.74;99942.31;5013502;28;20037;-67
2022/02/24 02:35:10;;;;;;;7.18;1.88;;;;;;;-1.19;73.63;99945.09;5013292;28;20476;-65
2022/02/24 02:37:36;;;;;;;7.93;2.00;;;;;;;-1.14;72.97;99943.09;5013767;28;20052;-67
2022/02/24 02:40:04;;;;;;;6.40;1.73;;;;;;;-1.24;73.79;99950.63;5013222;28;20145;-64
2022/02/24 02:42:30;;;;;;;7.20;1.90;;;;;;;-1.24;75.19;99945.31;5013378;28;20045;-65
2022/02/24 02:44:56;;;;;;;6.07;1.65;;;;;;;-1.22;75.04;99946.94;5013956;28;20126;-65
2022/02/24 02:47:22;;;;;;;8.10;1.90;;;;;;;-1.28;76.17;99955.22;5029869;28;20131;-65
2022/02/24 02:49:47;;;;;;;7.00;1.90;;;;;;;-1.24;76.27;99954.13;5013478;28;20519;-65
2022/02/24 02:52:13;;;;;;;10.10;1.88;;;;;;;-1.29;77.30;99953.47;4997113;28;20152;-63
2022/02/24 02:54:39;;;;;;;8.45;2.08;;;;;;;-1.38;77.32;99942.44;4996929;28;20038;-65
2022/02/24 02:57:05;;;;;;;7.85;2.20;;;;;;;-1.42;76.82;99941.72;5013427;28;20034;-65
2022/02/24 02:59:31;;;;;;;7.75;2.10;;;;;;;-1.41;77.82;99947.88;5013226;28;20136;-66
2022/02/24 03:01:56;;;;;;;7.13;2.45;;;;;;;-1.59;77.66;99917.72;4996465;28;20093;-65
2022/02/24 03:04:22;;;;;;;8.85;2.47;;;;;;;-1.41;77.78;99954.03;5029588;28;20056;-65
2022/02/24 03:06:48;;;;;;;7.25;2.50;;;;;;;-1.41;77.99;99954.03;4996564;28;20632;-66
2022/02/24 03:09:14;;;;;;;8.00;2.70;;;;;;;-1.47;78.00;99955.16;5013237;28;20072;-67
2022/02/24 03:11:40;;;;;;;10.00;2.35;;;;;;;-1.50;78.60;99965.03;4996764;28;20390;-66
2022/02/24 03:14:06;;;;;;;8.20;2.70;;;;;;;-1.51;78.73;99963.31;5031320;28;20477;-66
2022/02/24 03:16:32;;;;;;;8.65;2.50;;;;;;;-1.50;80.02;99968.56;5012747;28;20118;-66
2022/02/24 03:18:57;;;;;;;7.70;2.72;;;;;;;-1.44;80.74;99974.50;5013121;28;20056;-65
2022/02/24 03:21:23;;;;;;;8.75;2.33;;;;;;;-1.44;79.36;99975.38;4996695;28;20394;-67
2022/02/24 03:23:49;;;;;;;8.38;2.50;;;;;;;-1.44;80.36;99978.03;4996685;28;20068;-64
2022/02/24 03:26:15;;;;;;;8.68;2.38;;;;;;;-1.38;80.82;99975.09;5030933;28;20053;-66
2022/02/24 03:28:41;;;;;;;10.25;2.72;;;;;;;-1.46;80.65;99966.63;4998806;28;20048;-66
2022/02/24 03:31:07;;;;;;;8.80;2.80;;;;;;;-1.40;80.83;99982.25;5014270;28;20045;-64
2022/02/24 03:33:33;;;;;;;9.57;2.78;;;;;;;-1.39;81.77;99978.69;4997982;28;20052;-65
2022/02/24 03:35:59;;;;;;;7.75;2.83;;;;;;;-1.42;81.40;99985.94;5030623;28;20139;-67
2022/02/24 03:38:25;;;;;;;9.23;2.78;;;;;;;-1.40;81.88;99987.56;4997706;28;20144;-64
2022/02/24 03:40:51;;;;;;;9.57;2.67;;;;;;;-1.37;81.91;100002.47;5013519;28;20442;-67
2022/02/24 03:43:17;;;;;;;8.82;2.25;;;;;;;-1.51;81.77;99989.81;5013099;28;20459;-67
2022/02/24 03:45:43;;;;;;;13.25;3.13;;;;;;;-1.43;82.74;100003.59;4996251;28;20260;-66
2022/02/24 03:48:09;;;;;;;8.93;3.05;;;;;;;-1.38;83.06;100006.94;4996325;28;20037;-65
2022/02/24 03:50:35;;;;;;;9.52;2.78;;;;;;;-1.41;83.15;100011.50;4995624;28;20049;-67
2022/02/24 03:53:01;;;;;;;9.02;2.92;;;;;;;-1.45;82.73;100010.78;5012406;28;20049;-67
2022/02/24 03:55:27;;;;;;;9.63;3.28;;;;;;;-1.41;83.22;100016.81;4996318;28;20057;-66
2022/02/24 03:57:53;;;;;;;9.63;3.25;;;;;;;-1.39;83.74;100026.44;5012235;28;20041;-65
2022/02/24 04:00:20;;;;;;;9.75;3.05;;;;;;;-1.43;83.67;100029.25;4995591;28;20060;-68
2022/02/24 04:02:46;;;;;;;9.63;3.42;;;;;;;-1.56;84.22;100003.28;4991256;28;20045;-67
2022/02/24 04:05:15;;;;;;;10.95;3.33;;;;;;;-1.44;84.04;100036.34;5015504;28;20137;-65
2022/02/24 04:07:42;;;;;;;11.68;3.35;;;;;;;-1.38;84.02;100035.22;4996482;28;20417;-67
2022/02/24 04:10:08;;;;;;;8.88;3.38;;;;;;;-1.37;84.27;100032.50;5006624;28;20049;-66
2022/02/24 04:12:34;;;;;;;13.20;3.30;;;;;;;-1.47;84.30;100023.22;4996841;28;20061;-66
2022/02/24 04:15:00;;;;;;;9.13;3.00;;;;;;;-1.41;84.38;100041.53;4984409;28;20181;-65
2022/02/24 04:17:26;;;;;;;12.30;3.83;;;;;;;-1.34;84.68;100050.09;4991429;28;20069;-68
2022/02/24 04:19:51;;;;;;;11.45;2.97;;;;;;;-1.36;85.02;100058.09;4994873;28;20099;-66
2022/02/24 04:22:17;;;;;;;10.80;3.83;;;;;;;-1.34;85.08;100058.91;5000531;28;20045;-66
2022/02/24 04:24:43;;;;;;;12.13;3.35;;;;;;;-1.34;85.50;100055.38;5008483;28;20038;-68
2022/02/24 04:27:09;;;;;;;17.85;3.28;;;;;;;-1.32;85.04;100069.41;5033928;28;20048;-67
2022/02/24 04:29:35;;;;;;;12.43;4.15;;;;;;;-1.30;85.07;100073.75;5006962;28;20160;-65
2022/02/24 04:32:01;;;;;;;8.98;3.25;;;;;;;-1.32;85.31;100072.94;4991010;28;20077;-66
2022/02/24 04:34:26;;;;;;;10.10;3.85;;;;;;;-1.34;85.93;100071.28;4991461;28;20132;-65
2022/02/24 04:36:52;;;;;;;13.43;3.50;;;;;;;-1.32;85.58;100086.19;4975816;28;20103;-66
2022/02/24 04:39:18;;;;;;;11.30;3.60;;;;;;;-1.31;85.55;100087.09;4978370;28;20050;-67
2022/02/24 04:41:44;;;;;;;12.20;3.92;;;;;;;-1.29;85.89;100095.81;5012219;28;20095;-64
2022/02/24 04:44:10;;;;;;;17.35;4.32;;;;;;;-1.28;86.04;100097.53;4979316;28;20045;-66
2022/02/24 04:46:36;;;;;;;11.18;3.80;;;;;;;-1.28;86.04;100102.84;4979183;28;20042;-67
2022/02/24 04:49:02;;;;;;;12.65;4.28;;;;;;;-1.29;85.73;100112.59;4979485;28;20127;-67
2022/02/24 04:51:28;;;;;;;17.15;4.43;;;;;;;-1.28;85.74;100111.69;4995574;28;20498;-65
2022/02/24 04:53:54;;;;;;;9.15;3.15;;;;;;;-1.28;86.12;100108.13;4995541;28;20129;-67
2022/02/24 04:56:19;;;;;;;10.32;3.30;;;;;;;-1.21;86.18;100114.91;4979795;28;20088;-67
2022/02/24 04:58:45;;;;;;;12.40;3.67;;;;;;;-1.24;86.19;100118.56;4979395;28;20076;-66
2022/02/24 05:01:11;;;;;;;10.25;3.88;;;;;;;-1.24;85.91;100121.22;5028699;28;20135;-67
2022/02/24 05:03:37;;;;;;;8.63;3.33;;;;;;;-1.19;84.69;100121.03;4995751;28;20054;-67
2022/02/24 05:06:03;;;;;;;11.73;3.72;;;;;;;-1.16;85.98;100122.69;4979377;28;20069;-66
2022/02/24 05:08:29;;;;;;;10.85;3.65;;;;;;;-1.19;85.92;100133.44;4978946;28;20490;-66
2022/02/24 05:10:55;;;;;;;11.10;3.97;;;;;;;-1.35;86.55;100110.22;4995715;28;20076;-66
2022/02/24 05:13:21;;;;;;;9.88;3.90;;;;;;;-1.25;85.90;100138.03;4979179;28;20509;-65
2022/02/24 05:15:47;;;;;;;9.95;3.83;;;;;;;-1.25;85.75;100146.00;4979452;28;20063;-66
2022/02/24 05:18:13;;;;;;;11.18;4.22;;;;;;;-1.22;86.98;100139.72;4979426;28;20049;-66
2022/02/24 05:20:39;;;;;;;11.30;3.58;;;;;;;-1.24;86.30;100147.75;4995360;28;20116;-66
2022/02/24 05:23:05;;;;;;;9.73;3.40;;;;;;;-1.22;85.70;100151.19;4979156;28;20121;-69
2022/02/24 05:25:35;;;;;;;10.45;3.60;;;;;;;-1.18;86.00;100153.72;4995842;28;20054;-67
2022/02/24 05:28:08;;;;;;;9.10;2.80;;;;;;;-1.25;85.98;100156.63;4979531;28;20108;-67
2022/02/24 05:30:34;;;;;;;10.55;3.53;;;;;;;-1.27;86.53;100158.47;4979154;28;20069;-67
2022/02/24 05:33:00;;;;;;;11.45;3.67;;;;;;;-1.25;86.09;100161.06;4978886;28;20052;-67
2022/02/24 05:35:26;;;;;;;11.20;3.90;;;;;;;-1.27;86.40;100155.84;5011350;28;20061;-67
2022/02/24 05:37:52;;;;;;;11.90;4.07;;;;;;;-1.26;85.90;100159.34;5011153;28;20053;-67
2022/02/24 05:40:19;;;;;;;10.18;3.85;;;;;;;-1.23;86.05;100168.03;4978458;28;20508;-67
2022/02/24 05:42:45;;;;;;;11.07;3.92;;;;;;;-1.21;85.77;100157.34;4979014;28;20052;-67
2022/02/24 05:45:11;;;;;;;10.07;3.80;;;;;;;-1.30;86.63;100158.59;4979001;28;20044;-66
2022/02/24 05:47:37;;;;;;;9.75;3.83;;;;;;;-1.30;86.27;100158.59;4994634;28;20054;-68
2022/02/24 05:50:07;;;;;;;12.63;3.85;;;;;;;-1.30;86.32;100163.91;4994786;28;20061;-67
2022/02/24 05:52:37;;;;;;;11.20;4.03;;;;;;;-1.22;85.68;100166.25;4995037;28;20049;-67
2022/02/24 05:55:04;;;;;;;13.80;4.47;;;;;;;-1.15;86.09;100177.47;5011362;28;20050;-67
2022/02/24 05:57:30;;;;;;;10.05;3.85;;;;;;;-1.18;86.24;100166.97;4995487;28;20399;-68
2022/02/24 05:59:56;;;;;;;15.10;4.40;;;;;;;-1.17;85.40;100158.09;4978686;28;20107;-67
2022/02/24 06:02:22;;;;;;;11.90;4.47;;;;;;;-1.02;86.11;100173.38;5011336;28;20111;-67
2022/02/24 06:04:48;;;;;;;12.95;4.38;;;;;;;-0.95;85.35;100169.53;4978935;28;20531;-66
2022/02/24 06:07:14;;;;;;;11.98;4.38;;;;;;;-0.91;85.17;100181.75;4978813;28;20056;-66
2022/02/24 06:09:40;;;;;;;11.80;4.85;;;;;;;-0.83;83.86;100179.59;5011072;28;20072;-66
2022/02/24 06:12:06;;;;;;;12.10;4.00;;;;;;;-0.81;83.96;100192.81;4995800;28;20077;-67
2022/02/24 06:14:32;;;;;;;11.73;4.57;;;;;;;-0.83;82.88;100195.53;5012214;28;20053;-67
2022/02/24 06:16:59;;;;;;;9.32;3.70;;;;;;;-0.85;82.73;100196.50;4978631;28;20087;-66
2022/02/24 06:19:25;;;;;;;12.50;3.50;;;;;;;-0.86;82.52;100206.28;4994808;28;20508;-67
2022/02/24 06:21:52;;;;;;;10.85;3.67;;;;;;;-0.79;82.71;100199.78;5010266;28;20041;-68
2022/02/24 06:24:18;;;;;;;10.95;4.03;;;;;;;-0.68;82.41;100207.28;4994687;28;20052;-67
2022/02/24 06:26:45;;;;;;;11.27;4.25;;;;;;;-0.74;81.82;100211.03;5011298;28;20057;-67
2022/02/24 06:29:10;;;;;;;14.55;4.20;;;;;;;-0.70;81.37;100210.91;4978273;28;20041;-67
2022/02/24 06:31:37;;;;;;;14.10;4.18;;;;;;;-0.63;81.71;100218.56;4994022;28;20057;-67
2022/02/24 06:34:04;;;;;;;15.65;4.60;;;;;;;-0.69;81.69;100212.66;4978104;28;20088;-66
2022/02/24 06:36:30;;;;;;;13.43;4.50;;;;;;;-0.64;81.97;100226.59;4994872;28;20041;-67
2022/02/24 06:38:57;;;;;;;13.57;4.55;;;;;;;-0.70;81.28;100210.91;4995119;28;20449;-67
2022/02/24 06:41:27;;;;;;;11.10;3.80;;;;;;;-0.66;80.31;100224.00;4977969;28;20046;-68
2022/02/24 06:43:53;;;;;;;12.52;4.38;;;;;;;-0.62;80.80;100235.34;4994394;28;20081;-68
2022/02/24 06:46:19;;;;;;;9.90;3.63;;;;;;;-0.67;80.85;100232.03;4994854;28;20498;-66
2022/02/24 06:48:45;;;;;;;11.07;4.20;;;;;;;-0.65;79.99;100227.53;4994068;28;20100;-67
2022/02/24 06:51:11;;;;;;;10.32;3.92;;;;;;;-0.53;80.71;100234.94;5010925;28;20060;-67
2022/02/24 06:53:37;;;;;;;12.57;3.63;;;;;;;-0.42;80.04;100238.00;4977656;28;20144;-67
2022/02/24 06:56:04;;;;;;;10.60;3.85;;;;;;;-0.53;80.36;100229.66;4993818;28;20136;-67
2022/02/24 06:58:30;;;;;;;10.38;3.88;;;;;;;-0.39;79.56;100237.88;4977967;28;20081;-67
2022/02/24 07:00:55;;;;;;;11.00;4.00;;;;;;;-0.38;79.30;100236.94;5010782;28;20089;-67
2022/02/24 07:03:21;;;;;;;12.02;4.03;;;;;;;-0.45;78.21;100216.88;4977995;28;20442;-67
2022/02/24 07:05:47;;;;;;;10.70;3.85;;;;;;;-0.15;78.64;100251.84;4993589;28;20072;-66
2022/02/24 07:08:13;;;;;;;9.50;3.33;;;;;;;-0.33;77.91;100219.00;4993980;28;20446;-67
2022/02/24 07:10:39;;;;;;;10.73;3.42;;;;;;;-0.31;76.69;100227.75;4977761;28;20050;-67
2022/02/24 07:13:05;;;;;;;9.35;3.38;;;;;;;-0.33;77.61;100248.25;4993568;28;20042;-67
2022/02/24 07:15:31;;;;;;;11.02;3.53;;;;;;;0.03;77.18;100255.47;4977220;28;20282;-66
2022/02/24 07:17:58;;;;;;;14.48;3.47;;;;;;;-0.13;76.51;100255.31;4977452;28;20133;-66
2022/02/24 07:20:23;;;;;;;12.65;4.78;;;;;;;-0.11;76.41;100258.78;4994601;28;20136;-66
2022/02/24 07:22:49;;;;;;;12.73;5.32;;;;;;;0.16;75.36;100261.97;4993769;28;20050;-67
2022/02/24 07:25:15;;;;;;;8.43;2.85;;;;;;;-0.04;75.60;100257.56;4994561;28;20053;-68
2022/02/24 07:27:42;;;;;;;8.70;2.85;;;;;;;0.11;74.82;100258.66;5010145;28;20525;-67
2022/02/24 07:30:08;;;;;;;9.10;2.92;;;;;;;0.25;73.72;100252.69;4978789;28;20517;-67
2022/02/24 07:32:35;;;;;;;9.77;3.50;;;;;;;0.11;74.25;100229.41;4978540;28;20565;-67
2022/02/24 07:35:01;;;;;;;9.57;2.85;;;;;;;0.15;72.92;100246.94;4995128;28;20049;-67
2022/02/24 07:37:29;;;;;;;9.02;3.22;;;;;;;0.35;73.18;100271.75;4993923;28;20049;-68
2022/02/24 07:39:55;;;;;;;10.20;3.45;;;;;;;0.30;73.10;100263.97;4993843;28;20081;-66
2022/02/24 07:42:21;;;;;;;12.35;3.13;;;;;;;0.21;73.71;100270.56;4979517;28;20088;-67
2022/02/24 07:44:47;;;;;;;9.63;3.38;;;;;;;0.23;74.62;100270.53;4993249;28;20418;-67
2022/02/24 07:47:13;;;;;;;9.77;3.13;;;;;;;0.42;74.07;100270.53;4977537;28;20053;-67
2022/02/24 07:49:40;;;;;;;9.63;3.63;;;;;;;0.34;74.52;100280.66;4994359;28;20564;-67
2022/02/24 07:52:06;;;;;;;12.27;4.35;;;;;;;0.33;74.93;100274.50;4979063;28;20118;-68
2022/02/24 07:54:32;;;;;;;9.50;3.50;;;;;;;0.00;74.31;100247.66;4994849;28;20070;-66
2022/02/24 07:56:58;;;;;;;10.05;4.05;;;;;;;0.21;75.08;100291.84;4993492;28;20053;-68
2022/02/24 07:59:24;;;;;;;10.20;3.85;;;;;;;-0.18;75.44;100289.19;4977706;28;20148;-66
2022/02/24 08:01:50;;;;;;;10.32;3.80;;;;;;;-0.09;75.13;100288.78;5009253;28;20225;-67
2022/02/24 08:04:16;;;;;;;13.88;4.18;;;;;;;-0.26;75.77;100293.97;4992298;28;20096;-67
2022/02/24 08:06:42;;;;;;;10.07;3.47;;;;;;;-0.19;76.90;100303.41;4976433;28;20117;-66
2022/02/24 08:09:09;;;;;;;11.02;3.97;;;;;;;-0.21;75.93;100304.41;5025446;28;20046;-67
2022/02/24 08:11:35;;;;;;;10.27;3.08;;;;;;;-0.27;76.75;100295.75;4975851;28;20347;-68
2022/02/24 08:14:03;;;;;;;10.23;3.83;;;;;;;-0.39;75.73;100296.31;4992869;28;20045;-66
2022/02/24 08:16:29;;;;;;;9.20;3.60;;;;;;;-0.38;76.39;100298.03;5008871;28;20050;-68
2022/02/24 08:19:00;;;;;;;10.52;3.58;;;;;;;-0.28;76.09;100303.81;5009585;28;20141;-67
2022/02/24 08:21:26;;;;;;;10.35;3.60;;;;;;;-0.30;76.37;100303.84;4977339;28;20429;-67
2022/02/24 08:23:52;;;;;;;9.80;3.10;;;;;;;-0.36;75.46;100309.47;4992486;28;20340;-66
2022/02/24 08:26:19;;;;;;;10.38;3.53;;;;;;;-0.53;75.03;100310.16;4993499;28;20123;-68
2022/02/24 08:28:45;;;;;;;10.00;3.75;;;;;;;-0.58;76.54;100311.31;5026600;28;20037;-67
2022/02/24 08:31:11;;;;;;;9.27;3.30;;;;;;;-0.58;75.69;100311.31;4976711;28;20480;-66
2022/02/24 08:33:37;;;;;;;11.07;4.05;;;;;;;-0.63;75.62;100318.59;4976535;28;20061;-67
2022/02/24 08:36:03;;;;;;;9.13;3.70;;;;;;;-0.65;76.22;100316.00;4993192;28;20046;-66
2022/02/24 08:38:29;;;;;;;9.68;3.40;;;;;;;-0.65;76.41;100304.53;4976811;28;20053;-66
2022/02/24 08:40:55;;;;;;;16.25;3.65;;;;;;;-0.56;76.46;100314.75;4993312;28;20386;-66
2022/02/24 08:43:22;;;;;;;8.88;3.35;;;;;;;-0.50;74.83;100309.19;4976445;28;20142;-66
2022/02/24 08:45:48;;;;;;;17.30;3.78;;;;;;;-0.46;74.52;100318.75;4976575;28;20058;-66
2022/02/24 08:48:14;;;;;;;12.25;3.42;;;;;;;-0.37;74.78;100321.00;4992239;28;20118;-66
2022/02/24 08:50:40;;;;;;;10.02;3.30;;;;;;;-0.23;73.75;100323.06;4993308;28;20053;-67
2022/02/24 08:53:07;;;;;;;9.38;3.30;;;;;;;-0.36;74.20;100316.56;5009283;28;20434;-66
2022/02/24 08:55:33;;;;;;;16.13;4.13;;;;;;;-0.25;73.76;100312.50;4976675;28;20451;-68
2022/02/24 08:58:02;;;;;;;10.65;3.95;;;;;;;-0.45;73.33;100307.19;4992939;28;20115;-67
2022/02/24 09:00:28;;;;;;;11.15;4.50;;;;;;;-0.39;73.22;100314.91;4992832;28;20053;-67
2022/02/24 09:02:54;;;;;;;16.55;4.07;;;;;;;-0.29;73.38;100305.59;4992781;28;20042;-66
2022/02/24 09:05:20;;;;;;;8.57;3.05;;;;;;;-0.20;71.93;100301.69;4993036;28;20140;-67
2022/02/24 09:07:45;;;;;;;11.00;3.53;;;;;;;-0.21;71.45;100299.09;4976599;28;20054;-66
2022/02/24 09:10:11;;;;;;;12.10;3.83;;;;;;;-0.30;71.97;100306.50;4976457;28;20111;-66
2022/02/24 09:12:38;;;;;;;11.90;3.65;;;;;;;-0.37;72.52;100298.88;4992986;28;20050;-66
2022/02/24 09:15:04;;;;;;;9.98;4.28;;;;;;;-0.68;72.65;100294.03;5009240;28;20049;-66
2022/02/24 09:17:32;;;;;;;8.77;3.20;;;;;;;-0.51;72.42;100307.47;4992504;28;20046;-67
2022/02/24 09:19:57;;;;;;;10.25;3.60;;;;;;;-0.75;71.78;100304.03;4976970;28;20042;-67
2022/02/24 09:22:23;;;;;;;11.55;3.70;;;;;;;-0.79;72.88;100297.13;4992983;28;20134;-66
2022/02/24 09:24:49;;;;;;;8.90;3.13;;;;;;;-0.77;71.38;100309.41;4979463;28;20057;-66
2022/02/24 09:27:15;;;;;;;9.63;2.80;;;;;;;-0.72;70.42;100314.53;5012344;28;20092;-69
2022/02/24 09:29:41;;;;;;;10.80;3.10;;;;;;;-0.76;70.84;100312.94;4995664;28;20095;-67
2022/02/24 09:32:07;;;;;;;11.68;3.33;;;;;;;-0.75;71.60;100304.91;4979831;28;20053;-66
2022/02/24 09:34:33;;;;;;;9.60;3.35;;;;;;;-0.73;70.42;100315.47;4979522;28;20046;-66
2022/02/24 09:36:59;;;;;;;7.45;2.75;;;;;;;-0.81;69.61;100309.59;4996174;28;20596;-66
2022/02/24 09:39:25;;;;;;;10.68;2.90;;;;;;;-0.75;69.82;100320.81;4995709;28;20069;-67
2022/02/24 09:41:52;;;;;;;11.10;3.28;;;;;;;-0.66;69.40;100321.34;4979766;28;20111;-67
2022/02/24 09:44:17;;;;;;;8.95;3.08;;;;;;;-0.61;68.58;100325.56;4995974;28;20060;-67
2022/02/24 09:46:44;;;;;;;8.18;2.15;;;;;;;-0.53;68.87;100319.94;4995775;28;20050;-66
2022/02/24 09:49:10;;;;;;;7.43;2.42;;;;;;;-0.79;67.59;100318.38;4979592;28;20045;-66
2022/02/24 09:51:36;;;;;;;7.30;2.38;;;;;;;-0.70;68.25;100319.75;4979844;28;20049;-67
2022/02/24 09:54:02;;;;;;;9.80;2.67;;;;;;;-0.67;69.07;100320.50;4995911;28;20048;-66
2022/02/24 09:56:31;;;;;;;9.25;2.85;;;;;;;-0.42;67.34;100317.69;5000414;28;20124;-67
2022/02/24 09:58:59;;;;;;;12.48;2.70;;;;;;;-0.32;66.67;100323.47;5029569;28;20049;-66
2022/02/24 10:01:25;;;;;;;10.43;2.53;;;;;;;-0.10;66.22;100323.41;5018584;28;20053;-66
2022/02/24 10:04:00;;;;;;;10.25;3.47;;;;;;;0.16;64.94;100304.50;5018266;28;20090;-67
2022/02/24 10:06:41;;;;;;;8.95;2.92;;;;;;;0.49;62.65;100335.81;5019046;28;20572;-67
2022/02/24 10:09:08;;;;;;;8.20;2.78;;;;;;;0.71;62.32;100331.19;5051133;28;20049;-67
2022/02/24 10:11:35;;;;;;;12.00;2.72;;;;;;;0.85;60.36;100329.69;5018651;28;20131;-67
2022/02/24 10:14:12;;;;;;;7.70;2.30;;;;;;;0.99;58.77;100332.56;5034479;28;20045;-66
2022/02/24 10:16:54;;;;;;;;;;;;;;;0.84;58.56;100335.94;5034308;28;20056;-67
2022/02/24 10:19:28;;;;;;;6.50;1.77;;;;;;;0.78;57.94;100325.59;5050916;28;19924;-67
2022/02/24 10:22:09;;;;;;;6.07;1.80;;;;;;;1.12;57.75;100325.69;5052487;28;20098;-67
2022/02/24 10:24:35;;;;;;;6.78;2.08;;;;;;;0.86;58.56;100326.09;5034932;28;20524;-66
2022/02/24 10:27:25;;;;;;;8.48;2.20;;;;;;;1.08;57.73;100318.78;5018128;28;20049;-67
2022/02/24 10:30:09;;;;;;;9.18;2.70;;;;;;;1.25;58.88;100327.78;5001363;28;20066;-67
2022/02/24 10:32:38;;;;;;;8.50;3.38;;;;;;;0.51;58.09;100256.78;5033857;28;20072;-67
2022/02/24 10:35:27;;;;;;;12.52;2.88;;;;;;;0.70;59.62;100321.50;5016688;28;20044;-67
2022/02/24 10:38:13;;;;;;;9.43;2.47;;;;;;;0.86;60.65;100331.41;5001529;28;20049;-66
2022/02/24 10:40:41;;;;;;;8.30;2.33;;;;;;;0.75;59.15;100331.06;5018646;28;20049;-67
2022/02/24 10:43:20;;;;;;;7.90;2.25;;;;;;;0.86;59.16;100326.09;5050527;28;20045;-67
2022/02/24 10:45:57;;;;;;;8.70;2.90;;;;;;;0.79;58.98;100325.50;5018297;28;20116;-67
2022/02/24 10:48:22;;;;;;;;;;;;;;;0.82;58.41;100327.19;5017689;28;20045;-67
2022/02/24 10:51:05;;;;;;;10.32;2.00;;;;;;;0.92;58.43;100336.47;5016776;28;19932;-67
2022/02/24 10:53:37;;;;;;;7.85;2.05;;;;;;;0.65;58.65;100318.19;5049737;28;20072;-67
2022/02/24 10:56:04;;;;;;;12.98;2.55;;;;;;;0.72;59.13;100324.94;5016938;28;20049;-68
2022/02/24 10:58:37;;;;;;;8.30;2.17;;;;;;;0.61;59.39;100339.69;5032862;28;20048;-66
2022/02/24 11:01:05;;;;;;;9.27;2.58;;;;;;;0.75;60.51;100320.41;5016774;28;20045;-67
2022/02/24 11:03:32;;;;;;;8.05;3.03;;;;;;;0.98;58.93;100333.47;5033302;28;20069;-67
2022/02/24 11:06:05;;;;;;;8.95;2.40;;;;;;;0.97;59.53;100329.09;5000376;28;20392;-67
2022/02/24 11:08:32;;;;;;;10.63;3.00;;;;;;;0.99;59.52;100335.22;5033800;28;20099;-66
2022/02/24 11:10:59;;;;;;;9.70;2.65;;;;;;;1.04;59.26;100340.31;5017524;28;20055;-67
2022/02/24 11:13:27;;;;;;;14.50;2.83;;;;;;;1.13;58.90;100340.75;5034260;28;20426;-67
2022/02/24 11:15:54;;;;;;;9.77;2.80;;;;;;;1.30;59.02;100341.72;5001205;28;20087;-67
2022/02/24 11:18:21;;;;;;;8.68;2.60;;;;;;;1.19;57.75;100313.81;5001567;28;20044;-68
2022/02/24 11:20:47;;;;;;;9.93;2.85;;;;;;;1.37;58.78;100348.47;5033896;28;20056;-67
2022/02/24 11:23:14;;;;;;;8.70;2.83;;;;;;;1.27;58.85;100347.19;5033423;28;20049;-67
2022/02/24 11:26:04;;;;;;;12.02;2.78;;;;;;;0.98;58.68;100338.81;5049040;28;20075;-67